Time;durP1;ratioP1;P1;durP2;ratioP2;P2;SDS_P1;SDS_P2;PMS_P1;PMS_P2;Temp;Humidity;BMP_temperature;BMP_pressure;BME280_temperature;BME280_humidity;BME280_pressure;Samples;Min_cycle;Max_cycle;Signal;HPM_P1;HPM_P2
2023/04/17 00:00:34;;;;;;;6.55;6.05;;;10.00;99.90;;;;;;5096921;28;20045;-75
2023/04/17 00:03:00;;;;;;;6.53;6.13;;;10.00;99.90;;;;;;5095724;28;20491;-75
2023/04/17 00:05:26;;;;;;;6.57;6.18;;;10.00;99.90;;;;;;5095683;28;20040;-75
2023/04/17 00:07:53;;;;;;;6.38;5.97;;;10.00;99.90;;;;;;5078348;28;20135;-75
2023/04/17 00:10:19;;;;;;;6.05;5.65;;;10.00;99.90;;;;;;5078331;28;20044;-75
2023/04/17 00:12:45;;;;;;;6.45;6.05;;;10.00;99.90;;;;;;5096806;28;20036;-75
2023/04/17 00:15:10;;;;;;;6.25;5.85;;;10.10;99.90;;;;;;5095285;28;20480;-75
2023/04/17 00:17:36;;;;;;;6.07;5.68;;;10.00;99.90;;;;;;5078170;28;20488;-75
2023/04/17 00:20:06;;;;;;;6.15;5.75;;;9.90;99.90;;;;;;5096549;28;20395;-75
2023/04/17 00:22:32;;;;;;;;;;;10.00;99.90;;;;;;5095891;28;20032;-75
2023/04/17 00:24:58;;;;;;;6.03;5.63;;;10.00;99.90;;;;;;5096174;28;20371;-76
2023/04/17 00:27:24;;;;;;;6.20;5.80;;;10.00;99.90;;;;;;5094852;28;20040;-75
2023/04/17 00:29:50;;;;;;;6.22;5.82;;;10.00;99.90;;;;;;5095031;28;20067;-75
2023/04/17 00:32:15;;;;;;;5.78;5.38;;;10.00;99.90;;;;;;5094775;28;20057;-75
2023/04/17 00:34:41;;;;;;;6.30;5.90;;;10.00;99.90;;;;;;5094969;28;20051;-75
2023/04/17 00:37:06;;;;;;;6.50;6.10;;;9.90;99.90;;;;;;5096294;28;20051;-75
2023/04/17 00:39:32;;;;;;;6.03;5.63;;;10.00;99.90;;;;;;5094505;28;20055;-75
2023/04/17 00:41:58;;;;;;;5.95;5.55;;;10.00;99.90;;;;;;5077738;28;20408;-75
2023/04/17 00:44:23;;;;;;;6.10;5.70;;;10.00;99.90;;;;;;5128740;27;20036;-75
2023/04/17 00:46:49;;;;;;;5.18;4.88;;;10.00;99.90;;;;;;5096052;28;20032;-75
2023/04/17 00:49:14;;;;;;;5.68;5.28;;;10.00;99.90;;;;;;5094497;28;20545;-75
2023/04/17 00:51:40;;;;;;;6.13;5.63;;;10.00;99.90;;;;;;5094833;28;20434;-75
2023/04/17 00:54:07;;;;;;;5.63;5.22;;;10.00;99.90;;;;;;5094973;28;20067;-75
2023/04/17 00:56:32;;;;;;;5.15;4.85;;;9.90;99.90;;;;;;5094672;28;20050;-76
2023/04/17 00:59:02;;;;;;;5.15;4.85;;;10.00;99.90;;;;;;5094402;28;20028;-76
2023/04/17 01:01:28;;;;;;;;;;;10.00;99.90;;;;;;5095946;28;20514;-76
2023/04/17 01:03:54;;;;;;;5.47;5.07;;;9.90;99.90;;;;;;5077276;28;19916;-76
2023/04/17 01:06:19;;;;;;;5.15;4.85;;;9.80;99.90;;;;;;5094155;28;20075;-76
2023/04/17 01:08:45;;;;;;;4.85;4.55;;;9.90;99.90;;;;;;5094148;28;20039;-76
2023/04/17 01:11:11;;;;;;;4.95;4.65;;;9.80;99.90;;;;;;5077271;28;20081;-76
2023/04/17 01:13:48;;;;;;;5.30;4.90;;;10.00;99.90;;;;;;5094350;28;20092;-76
2023/04/17 01:16:14;;;;;;;5.18;4.88;;;10.00;99.90;;;;;;5078099;28;20380;-75
2023/04/17 01:18:40;;;;;;;4.60;4.30;;;9.90;99.90;;;;;;5076953;28;20032;-75
2023/04/17 01:21:05;;;;;;;5.40;5.05;;;9.90;99.90;;;;;;5077012;28;20036;-75
2023/04/17 01:23:50;;;;;;;5.15;4.82;;;9.90;99.90;;;;;;5093748;28;20036;-75
2023/04/17 01:26:19;;;;;;;5.40;5.10;;;9.80;99.90;;;;;;5094138;28;20036;-75
2023/04/17 01:28:52;;;;;;;5.20;4.90;;;9.80;99.90;;;;;;5093924;28;20086;-75
2023/04/17 01:31:18;;;;;;;5.05;4.75;;;9.80;99.90;;;;;;5095164;28;20036;-75
2023/04/17 01:33:44;;;;;;;5.10;4.80;;;10.00;99.90;;;;;;5076797;28;20404;-75
2023/04/17 01:36:10;;;;;;;4.80;4.50;;;9.90;99.90;;;;;;5095043;28;20063;-75
2023/04/17 01:38:35;;;;;;;5.53;5.15;;;9.90;99.90;;;;;;5093556;28;20048;-75
2023/04/17 01:41:08;;;;;;;5.10;4.80;;;9.90;99.90;;;;;;5093452;28;20051;-75
2023/04/17 01:43:41;;;;;;;4.88;4.57;;;9.90;99.90;;;;;;5093445;28;20506;-76
2023/04/17 01:46:07;;;;;;;5.10;4.80;;;9.90;99.90;;;;;;5093645;28;20043;-75
2023/04/17 01:48:33;;;;;;;5.55;5.15;;;10.00;99.90;;;;;;5076652;28;20043;-75
2023/04/17 01:50:59;;;;;;;4.93;4.63;;;10.00;99.90;;;;;;5076302;28;20044;-76
2023/04/17 01:53:26;;;;;;;5.65;5.25;;;9.90;99.90;;;;;;5076265;28;20036;-75
2023/04/17 01:55:52;;;;;;;5.35;4.95;;;9.90;99.90;;;;;;5093417;28;20116;-75
2023/04/17 01:58:17;;;;;;;5.60;5.20;;;9.90;99.90;;;;;;5076285;28;20046;-75
2023/04/17 02:00:47;;;;;;;5.28;4.88;;;9.90;99.90;;;;;;5094717;28;20036;-75
2023/04/17 02:03:13;;;;;;;5.35;4.95;;;9.90;99.90;;;;;;5093090;28;20054;-76
2023/04/17 02:05:39;;;;;;;5.40;5.00;;;9.90;99.90;;;;;;5094057;28;20040;-76
2023/04/17 02:08:04;;;;;;;5.03;4.72;;;9.80;99.90;;;;;;5094532;28;20043;-76
2023/04/17 02:10:30;;;;;;;5.20;4.85;;;9.80;99.90;;;;;;5093202;28;20062;-75
2023/04/17 02:12:55;;;;;;;5.82;5.43;;;9.80;99.90;;;;;;5076058;28;20032;-75
2023/04/17 02:15:21;;;;;;;5.60;5.20;;;9.90;99.90;;;;;;5093003;28;20096;-76
2023/04/17 02:17:47;;;;;;;5.20;4.85;;;9.90;99.90;;;;;;5093230;28;20436;-76
2023/04/17 02:20:12;;;;;;;5.85;5.45;;;9.80;99.90;;;;;;5094395;28;20394;-76
2023/04/17 02:22:38;;;;;;;5.45;5.05;;;9.80;99.90;;;;;;5093037;28;20545;-76
2023/04/17 02:25:04;;;;;;;6.05;5.65;;;9.80;99.90;;;;;;5075993;28;20491;-75
2023/04/17 02:27:30;;;;;;;5.75;5.35;;;9.80;99.90;;;;;;5126674;27;20224;-75
2023/04/17 02:29:56;;;;;;;5.85;5.45;;;9.80;99.90;;;;;;5075661;28;20057;-75
2023/04/17 02:32:22;;;;;;;5.20;4.90;;;9.80;99.90;;;;;;5092518;28;20040;-75
2023/04/17 02:34:47;;;;;;;5.70;5.30;;;9.80;99.90;;;;;;5093880;28;20044;-76
2023/04/17 02:37:13;;;;;;;5.80;5.40;;;9.80;99.90;;;;;;5092440;28;20032;-75
2023/04/17 02:39:38;;;;;;;5.93;5.43;;;9.70;99.90;;;;;;5092331;28;20051;-75
2023/04/17 02:42:04;;;;;;;6.28;5.88;;;9.70;99.90;;;;;;5092475;28;20533;-75
2023/04/17 02:44:30;;;;;;;6.00;5.60;;;9.70;99.90;;;;;;5093889;28;20075;-75
2023/04/17 02:46:55;;;;;;;5.88;5.47;;;9.60;99.90;;;;;;5093906;28;20032;-75
2023/04/17 02:49:21;;;;;;;5.85;5.45;;;9.70;99.90;;;;;;5092347;28;20476;-76
2023/04/17 02:51:47;;;;;;;6.10;5.65;;;9.60;99.90;;;;;;5092301;28;20048;-75
2023/04/17 02:54:12;;;;;;;6.45;6.05;;;9.60;99.90;;;;;;5092129;28;20040;-75
2023/04/17 02:56:38;;;;;;;6.22;5.82;;;9.50;99.90;;;;;;5093772;28;20101;-75
2023/04/17 02:59:03;;;;;;;6.28;5.88;;;9.50;99.90;;;;;;5092532;28;20047;-75
2023/04/17 03:01:29;;;;;;;6.90;6.40;;;9.60;99.90;;;;;;5092528;28;20036;-75
2023/04/17 03:03:55;;;;;;;6.75;6.25;;;9.60;99.90;;;;;;5075264;28;20034;-75
2023/04/17 03:06:22;;;;;;;6.45;6.05;;;9.60;99.90;;;;;;5093667;28;20071;-75
2023/04/17 03:08:48;;;;;;;6.13;5.72;;;9.70;99.90;;;;;;5093557;28;20119;-75
2023/04/17 03:11:14;;;;;;;6.00;5.60;;;9.60;99.90;;;;;;5075188;28;20136;-75
2023/04/17 03:13:40;;;;;;;6.50;6.10;;;9.70;99.90;;;;;;5092326;28;20044;-75
2023/04/17 03:16:06;;;;;;;6.78;6.28;;;9.70;99.90;;;;;;5075060;28;20036;-75
2023/04/17 03:18:34;;;;;;;6.35;5.95;;;9.70;99.90;;;;;;5094876;28;20072;-75
2023/04/17 03:21:00;;;;;;;7.05;6.55;;;9.70;99.90;;;;;;5096375;28;20055;-75
2023/04/17 03:23:25;;;;;;;6.72;6.22;;;9.60;99.90;;;;;;5096384;28;20028;-75
2023/04/17 03:25:51;;;;;;;6.80;6.30;;;9.70;99.90;;;;;;5097566;28;20456;-75
2023/04/17 03:28:17;;;;;;;7.60;7.00;;;9.70;99.90;;;;;;5095961;28;20040;-75
2023/04/17 03:30:43;;;;;;;7.32;6.72;;;9.70;99.90;;;;;;5097550;28;20164;-75
2023/04/17 03:33:08;;;;;;;6.60;6.20;;;9.70;99.90;;;;;;5095966;28;20411;-75
2023/04/17 03:35:34;;;;;;;6.90;6.47;;;9.60;99.90;;;;;;5096172;28;20392;-76
2023/04/17 03:38:00;;;;;;;6.38;5.75;;;9.70;99.90;;;;;;5095579;28;20048;-75
2023/04/17 03:40:26;;;;;;;6.85;6.35;;;9.70;99.90;;;;;;5096225;28;20044;-75
2023/04/17 03:42:52;;;;;;;6.95;6.32;;;9.70;99.90;;;;;;5095759;28;20441;-75
2023/04/17 03:45:17;;;;;;;7.38;6.72;;;9.70;99.90;;;;;;5097241;28;20453;-76
2023/04/17 03:47:43;;;;;;;6.47;6.03;;;9.70;99.90;;;;;;5079794;28;20075;-75
2023/04/17 03:50:09;;;;;;;7.45;6.70;;;9.60;99.90;;;;;;5078665;28;20040;-75
2023/04/17 03:52:35;;;;;;;7.75;7.15;;;9.60;99.90;;;;;;5095932;28;20027;-75
2023/04/17 03:55:01;;;;;;;7.07;6.47;;;9.60;99.90;;;;;;5096980;28;20434;-75
2023/04/17 03:57:27;;;;;;;6.78;6.28;;;9.50;99.90;;;;;;5078811;28;20040;-75
2023/04/17 03:59:52;;;;;;;7.00;6.50;;;9.40;99.90;;;;;;5095421;28;20085;-75
2023/04/17 04:02:18;;;;;;;7.40;6.90;;;9.50;99.90;;;;;;5095661;28;20391;-75
2023/04/17 04:04:46;;;;;;;7.30;6.72;;;9.40;99.90;;;;;;5078712;28;20150;-75
2023/04/17 04:07:12;;;;;;;8.30;7.60;;;9.50;99.90;;;;;;5078351;28;20261;-76
2023/04/17 04:09:37;;;;;;;7.20;6.70;;;9.40;99.90;;;;;;5095302;28;20134;-75
2023/04/17 04:12:03;;;;;;;6.53;6.03;;;9.50;99.90;;;;;;5096776;28;20046;-75
2023/04/17 04:14:29;;;;;;;7.30;6.80;;;9.50;99.90;;;;;;5096616;28;20043;-75
2023/04/17 04:16:54;;;;;;;7.22;6.72;;;9.50;99.90;;;;;;5095469;28;20028;-75
2023/04/17 04:19:20;;;;;;;7.47;6.97;;;9.50;99.90;;;;;;5095174;28;20472;-75
2023/04/17 04:21:46;;;;;;;6.90;6.40;;;9.40;99.90;;;;;;5096648;28;20036;-75
2023/04/17 04:24:12;;;;;;;9.02;7.35;;;9.40;99.90;;;;;;5095429;28;20040;-76
2023/04/17 04:26:39;;;;;;;7.15;6.55;;;9.50;99.90;;;;;;5095016;28;20048;-76
2023/04/17 04:29:05;;;;;;;6.85;6.35;;;9.50;99.90;;;;;;5094984;28;20111;-75
2023/04/17 04:31:31;;;;;;;6.55;6.10;;;9.40;99.90;;;;;;5096033;28;20036;-75
2023/04/17 04:33:58;;;;;;;6.70;6.18;;;9.40;99.90;;;;;;5077919;28;20047;-71
2023/04/17 04:36:24;;;;;;;6.32;5.93;;;9.50;99.90;;;;;;5096225;28;20061;-71
2023/04/17 04:38:49;;;;;;;6.35;5.85;;;9.50;99.90;;;;;;5077612;28;20127;-71
2023/04/17 04:41:16;;;;;;;6.20;5.80;;;9.50;99.90;;;;;;5094887;28;20048;-71
2023/04/17 04:43:42;;;;;;;5.85;5.40;;;9.50;99.90;;;;;;5094855;28;20040;-71
2023/04/17 04:46:09;;;;;;;6.25;5.85;;;9.50;99.90;;;;;;5094920;28;20036;-73
2023/04/17 04:48:35;;;;;;;5.85;5.45;;;9.60;99.90;;;;;;5094836;28;20032;-74
2023/04/17 04:51:00;;;;;;;6.25;5.75;;;9.50;99.90;;;;;;5094549;28;20028;-73
2023/04/17 04:53:26;;;;;;;5.60;5.30;;;9.50;99.90;;;;;;5095984;28;20036;-77
2023/04/17 04:55:52;;;;;;;5.55;5.25;;;9.50;99.90;;;;;;5094753;28;20032;-75
2023/04/17 04:58:17;;;;;;;5.65;5.25;;;9.50;99.90;;;;;;5094812;28;20032;-76
2023/04/17 05:00:43;;;;;;;5.47;4.97;;;9.50;99.90;;;;;;5095921;28;20044;-76
2023/04/17 05:03:09;;;;;;;5.05;4.75;;;9.60;99.90;;;;;;5077734;28;20513;-73
2023/04/17 05:05:34;;;;;;;5.60;5.10;;;9.50;99.90;;;;;;5095491;28;20040;-75
2023/04/17 05:08:01;;;;;;;5.07;4.70;;;9.40;99.90;;;;;;5094136;28;20391;-74
2023/04/17 05:10:27;;;;;;;4.82;4.43;;;9.40;99.90;;;;;;5094410;28;20404;-74
2023/04/17 05:12:52;;;;;;;4.70;4.40;;;9.30;99.90;;;;;;5095607;28;20036;-74
2023/04/17 05:15:18;;;;;;;4.95;4.65;;;9.40;99.90;;;;;;5094102;28;20044;-74
2023/04/17 05:17:44;;;;;;;4.47;4.18;;;9.40;99.90;;;;;;5094222;28;20043;-81
2023/04/17 05:20:11;;;;;;;4.60;4.20;;;9.40;99.90;;;;;;5095579;28;20028;-79
2023/04/17 05:22:37;;;;;;;6.53;4.50;;;9.50;99.90;;;;;;5094386;28;20111;-78
2023/04/17 05:25:03;;;;;;;5.30;4.72;;;9.40;99.90;;;;;;5076891;28;20044;-79
2023/04/17 05:27:29;;;;;;;4.15;3.85;;;9.30;99.90;;;;;;5093751;28;20039;-81
2023/04/17 05:29:55;;;;;;;4.70;4.30;;;9.40;99.90;;;;;;5076807;28;20077;-80
2023/04/17 05:32:21;;;;;;;4.50;4.10;;;9.40;99.90;;;;;;5077103;28;20131;-79
2023/04/17 05:34:47;;;;;;;4.88;4.47;;;9.30;99.90;;;;;;5093846;28;20399;-80
2023/04/17 05:37:12;;;;;;;4.60;4.30;;;9.40;99.90;;;;;;5076736;28;20044;-79
2023/04/17 05:39:38;;;;;;;4.57;4.28;;;9.40;99.90;;;;;;5093297;28;20048;-80
2023/04/17 05:42:04;;;;;;;5.78;4.40;;;9.40;99.90;;;;;;5093552;28;20059;-80
2023/04/17 05:44:30;;;;;;;4.85;4.55;;;9.50;99.90;;;;;;5093542;28;20097;-80
2023/04/17 05:46:58;;;;;;;4.95;4.65;;;9.40;99.90;;;;;;5093555;28;20110;-80
2023/04/17 05:49:27;;;;;;;5.25;4.85;;;9.40;99.90;;;;;;5076799;28;20039;-82
2023/04/17 05:51:53;;;;;;;4.53;4.22;;;9.40;99.90;;;;;;5093687;28;20067;-80
2023/04/17 05:54:18;;;;;;;4.75;4.35;;;9.40;99.90;;;;;;5093332;28;20059;-81
2023/04/17 05:56:44;;;;;;;4.97;4.68;;;9.40;99.90;;;;;;5093598;28;20093;-81
2023/04/17 05:59:10;;;;;;;4.90;4.60;;;9.40;99.90;;;;;;5076281;28;20036;-80
2023/04/17 06:01:35;;;;;;;5.47;5.00;;;9.40;99.90;;;;;;5093509;28;20117;-80
2023/04/17 06:04:01;;;;;;;4.93;4.60;;;9.30;99.90;;;;;;5093072;28;20115;-80
2023/04/17 06:06:27;;;;;;;4.60;4.30;;;9.30;99.90;;;;;;5093104;28;20047;-82
2023/04/17 06:08:53;;;;;;;4.65;4.35;;;9.30;99.90;;;;;;5094585;28;20032;-71
2023/04/17 06:11:19;;;;;;;4.60;4.30;;;9.40;99.90;;;;;;5093178;28;20391;-71
2023/04/17 06:13:45;;;;;;;5.75;4.15;;;9.50;99.90;;;;;;5094422;28;20067;-71
2023/04/17 06:16:11;;;;;;;4.40;4.10;;;9.50;99.90;;;;;;5094333;28;20468;-71
2023/04/17 06:18:37;;;;;;;4.50;4.20;;;9.50;99.90;;;;;;5094009;28;20642;-72
2023/04/17 06:21:03;;;;;;;4.53;4.22;;;9.50;99.90;;;;;;5092736;28;20115;-71
2023/04/17 06:23:29;;;;;;;4.70;4.40;;;9.50;99.90;;;;;;5093035;28;20032;-71
2023/04/17 06:25:55;;;;;;;4.95;4.55;;;9.60;99.90;;;;;;5092738;28;20043;-71
2023/04/17 06:28:21;;;;;;;4.68;4.30;;;9.60;99.90;;;;;;5094100;28;20040;-71
2023/04/17 06:30:47;;;;;;;4.93;4.53;;;9.60;99.90;;;;;;5093884;28;20040;-71
2023/04/17 06:33:13;;;;;;;5.03;4.72;;;9.70;99.90;;;;;;5094105;28;20059;-71
2023/04/17 06:35:39;;;;;;;4.70;4.40;;;9.70;99.90;;;;;;5093971;28;20494;-71
2023/04/17 06:38:06;;;;;;;5.05;4.75;;;9.70;99.90;;;;;;5092302;28;20507;-75
2023/04/17 06:40:32;;;;;;;4.80;4.50;;;9.70;99.90;;;;;;5092807;28;20054;-74
2023/04/17 06:42:57;;;;;;;7.70;5.28;;;9.70;99.90;;;;;;5092429;28;20122;-75
2023/04/17 06:45:23;;;;;;;5.38;5.00;;;9.60;99.90;;;;;;5092439;28;20062;-75
2023/04/17 06:47:48;;;;;;;5.05;4.75;;;9.60;99.90;;;;;;5092748;28;20039;-74
2023/04/17 06:50:15;;;;;;;4.90;4.60;;;9.60;99.90;;;;;;5093870;28;20472;-75
2023/04/17 06:52:41;;;;;;;5.53;5.13;;;9.70;99.90;;;;;;5093090;28;20051;-74
2023/04/17 06:55:08;;;;;;;5.50;5.20;;;9.70;99.90;;;;;;5093742;28;20047;-74
2023/04/17 06:57:33;;;;;;;5.60;5.20;;;9.70;99.90;;;;;;5093746;28;20157;-74
2023/04/17 06:59:59;;;;;;;5.32;5.03;;;9.70;99.90;;;;;;5092291;28;20082;-76
2023/04/17 07:02:25;;;;;;;5.20;4.90;;;9.80;99.90;;;;;;5075349;28;20036;-75
2023/04/17 07:04:52;;;;;;;5.82;5.38;;;9.80;99.90;;;;;;5075414;28;20032;-75
2023/04/17 07:07:17;;;;;;;5.30;5.00;;;9.80;99.90;;;;;;5092990;28;20160;-75
2023/04/17 07:09:44;;;;;;;5.18;4.88;;;9.90;99.90;;;;;;5126465;28;20184;-75
2023/04/17 07:12:09;;;;;;;5.47;5.18;;;9.90;99.90;;;;;;5093653;28;20044;-75
2023/04/17 07:14:35;;;;;;;5.15;4.85;;;10.00;99.90;;;;;;5092367;28;20030;-75
2023/04/17 07:17:01;;;;;;;5.38;5.07;;;10.10;99.90;;;;;;5092016;28;20533;-75
2023/04/17 07:19:27;;;;;;;5.63;5.32;;;10.30;99.90;;;;;;5092337;28;20396;-74
2023/04/17 07:21:52;;;;;;;4.97;4.68;;;10.30;99.90;;;;;;5092297;28;20038;-74
2023/04/17 07:24:18;;;;;;;4.82;4.53;;;10.50;99.90;;;;;;5091919;28;20040;-74
2023/04/17 07:26:44;;;;;;;4.53;4.22;;;10.60;99.90;;;;;;5126116;28;20036;-74
2023/04/17 07:29:09;;;;;;;4.50;4.20;;;10.70;99.90;;;;;;5092133;28;20498;-74
2023/04/17 07:31:35;;;;;;;4.20;4.00;;;10.80;99.90;;;;;;5093370;28;20107;-74
2023/04/17 07:34:01;;;;;;;4.68;4.38;;;10.90;99.90;;;;;;5091995;28;20078;-74
2023/04/17 07:36:27;;;;;;;4.70;4.40;;;11.00;99.90;;;;;;5091906;28;20044;-75
2023/04/17 07:38:53;;;;;;;4.85;4.55;;;11.00;99.90;;;;;;5091646;28;20052;-74
2023/04/17 07:41:18;;;;;;;4.60;4.30;;;11.00;99.90;;;;;;5075002;28;20120;-75
2023/04/17 07:43:44;;;;;;;4.32;4.05;;;11.10;99.90;;;;;;5091798;28;20039;-73
2023/04/17 07:46:11;;;;;;;4.00;3.80;;;11.10;99.90;;;;;;5075351;28;20048;-75
2023/04/17 07:48:36;;;;;;;4.30;4.00;;;11.20;99.90;;;;;;5091773;28;20101;-74
2023/04/17 07:51:02;;;;;;;4.28;4.07;;;11.20;99.90;;;;;;5093287;28;20036;-74
2023/04/17 07:53:28;;;;;;;4.00;3.80;;;11.30;99.90;;;;;;5091657;28;20040;-74
2023/04/17 07:55:55;;;;;;;3.83;3.63;;;11.30;99.90;;;;;;5091604;28;20122;-74
2023/04/17 07:58:22;;;;;;;4.20;3.90;;;11.30;99.90;;;;;;5093176;28;20036;-74
2023/04/17 08:00:49;;;;;;;4.22;3.97;;;11.30;99.90;;;;;;5091947;28;20065;-74
2023/04/17 08:03:15;;;;;;;3.63;3.42;;;11.30;99.90;;;;;;5092448;28;20392;-74
2023/04/17 08:05:41;;;;;;;3.88;3.67;;;11.30;99.90;;;;;;5096879;28;20036;-74
2023/04/17 08:08:06;;;;;;;3.45;3.25;;;11.40;99.90;;;;;;5096496;28;20131;-74
2023/04/17 08:10:32;;;;;;;3.33;3.13;;;11.50;99.90;;;;;;5078688;28;20143;-74
2023/04/17 08:12:59;;;;;;;3.33;3.13;;;11.50;99.90;;;;;;5129381;27;20181;-74
2023/04/17 08:15:24;;;;;;;3.70;3.47;;;11.60;99.90;;;;;;5096324;28;20503;-74
2023/04/17 08:17:50;;;;;;;3.80;3.60;;;11.50;99.90;;;;;;5095373;28;20032;-74
2023/04/17 08:20:17;;;;;;;3.45;3.25;;;11.60;99.90;;;;;;5095439;28;20040;-74
2023/04/17 08:22:44;;;;;;;3.40;3.20;;;11.60;99.90;;;;;;5078258;28;20043;-74
2023/04/17 08:25:11;;;;;;;3.47;3.28;;;11.60;99.90;;;;;;5094976;28;20043;-75
2023/04/17 08:27:39;;;;;;;3.33;3.13;;;11.70;99.90;;;;;;5078115;28;20039;-75
2023/04/17 08:30:05;;;;;;;3.20;3.00;;;11.70;99.90;;;;;;5078304;28;20032;-75
2023/04/17 08:32:42;;;;;;;3.40;3.20;;;11.70;99.90;;;;;;5129380;27;20032;-75
2023/04/17 08:35:12;;;;;;;3.00;2.80;;;11.70;99.90;;;;;;5077800;28;20058;-74
2023/04/17 08:37:43;;;;;;;2.97;2.80;;;11.70;99.90;;;;;;5128932;27;20060;-73
2023/04/17 08:40:09;;;;;;;2.90;2.70;;;11.80;99.90;;;;;;5095070;28;20127;-74
2023/04/17 08:42:36;;;;;;;3.25;3.05;;;11.90;99.90;;;;;;5096237;28;20115;-74
2023/04/17 08:45:09;;;;;;;2.92;2.72;;;11.80;99.90;;;;;;5094885;28;20438;-74
2023/04/17 08:47:38;;;;;;;2.70;2.60;;;12.00;99.90;;;;;;5096041;28;20044;-74
2023/04/17 08:50:10;;;;;;;2.80;2.70;;;12.10;99.90;;;;;;5094856;28;20088;-74
2023/04/17 08:52:44;;;;;;;2.67;2.47;;;12.10;99.90;;;;;;5077803;28;20275;-74
2023/04/17 08:55:15;;;;;;;2.90;2.70;;;12.20;99.90;;;;;;5094526;28;20040;-74
2023/04/17 08:58:02;;;;;;;2.60;2.50;;;12.30;99.90;;;;;;5094751;28;20044;-75
2023/04/17 09:00:30;;;;;;;2.63;2.42;;;12.40;99.90;;;;;;5077475;28;20051;-75
2023/04/17 09:02:58;;;;;;;2.33;2.20;;;12.50;99.90;;;;;;5094662;28;20074;-75
2023/04/17 09:05:25;;;;;;;2.40;2.30;;;12.70;99.90;;;;;;5095752;28;20051;-76
2023/04/17 09:08:05;;;;;;;2.28;2.08;;;12.80;99.90;;;;;;5077264;28;20108;-75
2023/04/17 09:10:44;;;;;;;2.25;2.15;;;12.90;99.90;;;;;;5094260;28;20040;-76
2023/04/17 09:13:13;;;;;;;2.10;2.00;;;13.00;99.90;;;;;;5094149;28;20511;-77
2023/04/17 09:15:39;;;;;;;2.40;2.20;;;13.10;99.90;;;;;;5093190;28;20075;-76
2023/04/17 09:18:21;;;;;;;2.30;2.17;;;13.20;99.90;;;;;;5093978;28;20067;-75
2023/04/17 09:20:51;;;;;;;2.03;1.92;;;13.30;99.90;;;;;;5094020;28;20036;-76
2023/04/17 09:23:17;;;;;;;2.25;2.10;;;13.30;99.90;;;;;;5093828;28;20165;-75
2023/04/17 09:25:42;;;;;;;2.13;2.03;;;13.40;99.90;;;;;;5095368;28;20495;-75
2023/04/17 09:28:13;;;;;;;2.10;2.00;;;13.50;99.90;;;;;;5095349;28;20556;-75
2023/04/17 09:30:40;;;;;;;1.90;1.80;;;13.50;99.90;;;;;;5093799;28;20050;-76
2023/04/17 09:33:08;;;;;;;2.10;2.00;;;13.50;99.90;;;;;;5076803;28;20519;-76
2023/04/17 09:35:37;;;;;;;1.98;1.88;;;13.60;99.90;;;;;;5077703;28;20413;-76
2023/04/17 09:38:03;;;;;;;1.93;1.80;;;13.70;99.90;;;;;;5093458;28;20135;-76
2023/04/17 09:40:36;;;;;;;1.73;1.63;;;13.80;99.90;;;;;;5076889;28;20127;-76
2023/04/17 09:43:04;;;;;;;1.80;1.70;;;13.90;99.90;;;;;;5093634;28;20093;-76
2023/04/17 09:45:35;;;;;;;1.70;1.60;;;13.90;99.90;;;;;;5093547;28;20032;-76
2023/04/17 09:48:05;;;;;;;1.80;1.70;;;14.00;99.90;;;;;;5094621;28;20074;-77
2023/04/17 09:50:32;;;;;;;1.60;1.50;;;14.10;99.90;;;;;;5093728;28;20102;-76
2023/04/17 09:52:57;;;;;;;2.03;1.92;;;14.10;99.90;;;;;;5094840;28;20047;-76
2023/04/17 09:55:25;;;;;;;1.30;1.30;;;14.10;99.90;;;;;;5094426;28;20036;-75
2023/04/17 09:57:55;;;;;;;1.65;1.55;;;14.20;99.90;;;;;;5076366;28;20097;-76
2023/04/17 10:00:22;;;;;;;1.90;1.80;;;14.30;99.90;;;;;;5093536;28;20040;-76
2023/04/17 10:02:52;;;;;;;2.03;1.73;;;14.40;99.90;;;;;;5093450;28;20131;-76
2023/04/17 10:05:19;;;;;;;1.60;1.50;;;14.50;99.90;;;;;;5093358;28;20048;-76
2023/04/17 10:07:45;;;;;;;1.65;1.55;;;14.60;99.90;;;;;;5093438;28;20039;-75
2023/04/17 10:10:20;;;;;;;1.80;1.70;;;14.50;99.90;;;;;;5076012;28;20464;-76
2023/04/17 10:12:48;;;;;;;1.67;1.58;;;14.70;99.90;;;;;;5092994;28;20043;-76
2023/04/17 10:15:15;;;;;;;1.50;1.40;;;14.90;99.90;;;;;;5092833;28;20080;-75
2023/04/17 10:17:40;;;;;;;1.60;1.50;;;15.00;99.90;;;;;;5094360;28;20123;-75
2023/04/17 10:20:18;;;;;;;1.70;1.60;;;15.10;99.90;;;;;;5094393;28;20119;-76
2023/04/17 10:22:55;;;;;;;1.42;1.33;;;15.10;99.90;;;;;;5092793;28;20122;-75
2023/04/17 10:25:27;;;;;;;1.30;1.30;;;15.10;99.90;;;;;;5092931;28;20373;-75
2023/04/17 10:28:00;;;;;;;1.20;1.20;;;15.10;99.90;;;;;;5093009;28;20067;-76
2023/04/17 10:30:48;;;;;;;1.27;1.27;;;15.10;99.90;;;;;;5075713;28;20075;-76
2023/04/17 10:33:14;;;;;;;1.20;1.20;;;15.10;99.90;;;;;;5094169;28;20061;-75
2023/04/17 10:35:40;;;;;;;1.40;1.30;;;15.10;99.90;;;;;;5092977;28;20032;-75
2023/04/17 10:38:07;;;;;;;1.40;1.30;;;15.10;99.90;;;;;;5075659;28;20483;-74
2023/04/17 10:40:35;;;;;;;1.40;1.40;;;15.10;99.90;;;;;;5094137;28;20090;-73
2023/04/17 10:43:02;;;;;;;1.20;1.20;;;15.10;99.90;;;;;;5093997;28;20035;-74
2023/04/17 10:45:58;;;;;;;1.30;1.25;;;15.20;99.90;;;;;;5093976;28;20446;-77
2023/04/17 10:48:37;;;;;;;1.30;1.20;;;15.20;99.90;;;;;;5094041;28;20043;-76
2023/04/17 10:51:38;;;;;;;1.27;1.20;;;15.10;99.90;;;;;;5093827;28;20143;-76
2023/04/17 10:54:05;;;;;;;1.38;1.30;;;15.10;99.90;;;;;;5093894;28;20055;-77
2023/04/17 10:56:47;;;;;;;1.10;1.10;;;15.20;99.90;;;;;;5092120;28;20397;-76
2023/04/17 10:59:14;;;;;;;1.40;1.30;;;15.30;99.90;;;;;;5092184;28;20043;-76
2023/04/17 11:01:46;;;;;;;1.45;1.35;;;15.40;99.90;;;;;;5076311;28;20395;-76
2023/04/17 11:04:18;;;;;;;1.40;1.30;;;15.50;99.90;;;;;;5075596;28;20467;-76
2023/04/17 11:06:44;;;;;;;1.13;1.13;;;15.70;99.90;;;;;;5093695;28;20040;-77
2023/04/17 11:09:10;;;;;;;1.10;1.00;;;15.90;99.90;;;;;;5094118;28;20039;-77
2023/04/17 11:11:38;;;;;;;1.10;1.10;;;16.00;99.90;;;;;;5093673;28;20392;-77
2023/04/17 11:14:17;;;;;;;1.13;1.10;;;16.10;99.90;;;;;;5075293;28;20036;-76
2023/04/17 11:16:45;;;;;;;2.83;2.63;;;16.10;99.90;;;;;;5092375;28;20396;-75
2023/04/17 11:19:20;;;;;;;1.20;1.20;;;16.10;99.90;;;;;;5093577;28;20065;-75
2023/04/17 11:21:47;;;;;;;1.10;1.00;;;16.20;99.90;;;;;;5093664;28;20044;-75
2023/04/17 11:24:21;;;;;;;1.70;1.13;;;16.40;99.90;;;;;;5075190;28;20078;-75
2023/04/17 11:26:47;;;;;;;1.00;1.00;;;16.30;99.90;;;;;;5092197;28;20556;-75
2023/04/17 11:29:17;;;;;;;1.17;1.10;;;16.30;99.90;;;;;;5091918;28;20047;-75
2023/04/17 11:31:52;;;;;;;0.90;0.90;;;16.20;99.90;;;;;;5092196;28;20071;-75
2023/04/17 11:34:18;;;;;;;1.20;1.10;;;16.20;99.90;;;;;;5075101;28;20040;-75
2023/04/17 11:36:51;;;;;;;0.90;0.90;;;16.20;99.90;;;;;;5074934;28;20127;-76
2023/04/17 11:39:18;;;;;;;1.00;1.00;;;16.40;99.90;;;;;;5094137;28;20056;-74
2023/04/17 11:41:45;;;;;;;1.13;1.02;;;16.50;99.90;;;;;;5095806;28;20040;-76
2023/04/17 11:44:15;;;;;;;1.00;1.00;;;16.50;99.90;;;;;;5097260;28;20066;-75
2023/04/17 11:46:41;;;;;;;1.13;1.13;;;16.60;99.90;;;;;;5096141;28;20047;-75
2023/04/17 11:49:07;;;;;;;1.17;1.08;;;16.60;99.90;;;;;;5097315;28;20036;-75
2023/04/17 11:51:33;;;;;;;1.15;1.05;;;16.60;99.90;;;;;;5078795;28;20036;-76
2023/04/17 11:53:59;;;;;;;1.10;1.10;;;16.80;99.90;;;;;;5096049;28;20040;-75
2023/04/17 11:56:28;;;;;;;1.25;1.15;;;16.90;99.90;;;;;;5095572;28;20110;-76
2023/04/17 11:58:58;;;;;;;1.30;1.20;;;17.00;99.90;;;;;;5078992;28;20383;-75
2023/04/17 12:01:27;;;;;;;1.20;1.10;;;17.00;99.90;;;;;;5095553;28;20051;-75
2023/04/17 12:03:57;;;;;;;1.17;1.08;;;17.20;99.90;;;;;;5095500;28;20032;-76
2023/04/17 12:06:23;;;;;;;;;;;17.20;99.90;;;;;;5095807;28;20044;-75
2023/04/17 12:08:54;;;;;;;1.02;1.00;;;17.20;99.90;;;;;;5095358;28;19965;-75
2023/04/17 12:11:28;;;;;;;0.90;0.90;;;17.30;99.90;;;;;;5095748;28;20086;-76
2023/04/17 12:13:55;;;;;;;1.00;1.00;;;17.40;99.90;;;;;;5096836;28;20040;-76
2023/04/17 12:16:23;;;;;;;0.90;0.90;;;17.50;99.90;;;;;;5078236;28;20488;-76
2023/04/17 12:18:49;;;;;;;1.13;1.08;;;17.50;99.90;;;;;;5095177;28;20526;-76
2023/04/17 12:21:15;;;;;;;1.00;1.00;;;17.60;99.90;;;;;;5078227;28;20067;-76
2023/04/17 12:23:40;;;;;;;0.90;0.90;;;17.60;99.90;;;;;;5095425;28;20024;-75
2023/04/17 12:26:07;;;;;;;0.90;0.90;;;17.70;99.90;;;;;;5129297;27;20496;-75
2023/04/17 12:28:33;;;;;;;1.10;1.00;;;17.50;99.90;;;;;;5094920;28;20040;-73
2023/04/17 12:30:58;;;;;;;0.90;0.90;;;17.60;99.90;;;;;;5096462;28;20096;-75
2023/04/17 12:33:24;;;;;;;0.90;0.90;;;17.70;99.90;;;;;;5078060;28;20028;-74
2023/04/17 12:35:50;;;;;;;0.95;0.95;;;17.80;99.90;;;;;;5094924;28;20560;-75
2023/04/17 12:38:16;;;;;;;1.48;0.73;;;17.80;99.90;;;;;;5077830;28;20048;-74
2023/04/17 12:40:43;;;;;;;0.80;0.80;;;17.80;99.90;;;;;;5094797;28;20051;-75
2023/04/17 12:43:12;;;;;;;0.95;0.90;;;17.90;99.90;;;;;;5094984;28;20043;-75
2023/04/17 12:45:38;;;;;;;0.90;0.90;;;18.00;99.90;;;;;;5094605;28;20055;-75
2023/04/17 12:48:05;;;;;;;0.82;0.82;;;18.10;99.80;;;;;;5096075;28;20050;-74
2023/04/17 12:50:31;;;;;;;1.50;1.00;;;18.20;99.80;;;;;;5093287;28;20131;-75
2023/04/17 12:52:57;;;;;;;0.80;0.80;;;18.10;99.30;;;;;;5094582;28;20063;-75